Time;durP1;ratioP1;P1;durP2;ratioP2;P2;SDS_P1;SDS_P2;PMS_P1;PMS_P2;Temp;Humidity;BMP_temperature;BMP_pressure;BME280_temperature;BME280_humidity;BME280_pressure;Samples;Min_cycle;Max_cycle;Signal;HPM_P1;HPM_P2
2023/09/13 00:01:51;;;;;;;52.03;36.77;;;;;;;;;;5022020;28;20474;-79
2023/09/13 00:04:17;;;;;;;51.47;35.87;;;;;;;;;;5029618;28;20469;-79
2023/09/13 00:06:44;;;;;;;56.13;36.80;;;;;;;;;;5024349;28;20958;-78
2023/09/13 00:09:10;;;;;;;50.90;36.10;;;;;;;;;;5026833;28;20473;-80
2023/09/13 00:11:36;;;;;;;57.30;38.50;;;;;;;;;;5015689;28;20472;-79
2023/09/13 00:14:03;;;;;;;51.20;37.30;;;;;;;;;;4994518;28;20482;-79
2023/09/13 00:16:30;;;;;;;54.67;38.20;;;;;;;;;;5026806;28;20468;-79
2023/09/13 00:18:59;;;;;;;57.93;38.33;;;;;;;;;;5004493;28;20884;-78
2023/09/13 00:21:25;;;;;;;61.50;40.27;;;;;;;;;;5027264;28;20915;-79
2023/09/13 00:23:52;;;;;;;54.63;40.77;;;;;;;;;;5018834;28;20474;-80
2023/09/13 00:26:18;;;;;;;58.70;40.73;;;;;;;;;;5028498;28;20509;-78
2023/09/13 00:28:45;;;;;;;56.93;39.80;;;;;;;;;;5023821;28;20469;-79
2023/09/13 00:31:12;;;;;;;59.37;41.97;;;;;;;;;;5029358;28;20455;-79
2023/09/13 00:33:40;;;;;;;57.87;41.33;;;;;;;;;;4993357;28;20469;-78
2023/09/13 00:36:07;;;;;;;59.90;42.20;;;;;;;;;;5027170;28;20464;-78
2023/09/13 00:38:33;;;;;;;57.37;40.63;;;;;;;;;;5001024;28;20493;-78
2023/09/13 00:41:00;;;;;;;60.30;43.43;;;;;;;;;;5014775;28;21911;-79
2023/09/13 00:43:26;;;;;;;57.00;40.30;;;;;;;;;;5027222;28;20477;-79
2023/09/13 00:45:52;;;;;;;59.70;41.63;;;;;;;;;;5011576;28;20496;-79
2023/09/13 00:48:23;;;;;;;59.97;43.70;;;;;;;;;;5021418;28;21013;-81
2023/09/13 00:50:51;;;;;;;60.47;43.37;;;;;;;;;;5008769;28;20572;-80
2023/09/13 00:53:18;;;;;;;66.60;43.10;;;;;;;;;;5011900;28;20970;-79
2023/09/13 00:55:46;;;;;;;68.20;43.80;;;;;;;;;;5000622;28;20462;-80
2023/09/13 00:58:12;;;;;;;62.23;42.63;;;;;;;;;;5007859;28;20977;-80
2023/09/13 01:00:39;;;;;;;63.33;43.90;;;;;;;;;;5008117;28;20470;-80
2023/09/13 01:03:06;;;;;;;66.03;43.47;;;;;;;;;;5007812;28;20476;-79
2023/09/13 01:05:33;;;;;;;68.07;45.97;;;;;;;;;;5005951;28;20470;-79
2023/09/13 01:08:01;;;;;;;65.77;43.47;;;;;;;;;;5021724;28;20465;-80
2023/09/13 01:10:27;;;;;;;70.67;45.43;;;;;;;;;;5023125;28;20473;-79
2023/09/13 01:12:54;;;;;;;68.37;45.57;;;;;;;;;;5020502;28;20964;-80
2023/09/13 01:15:23;;;;;;;65.40;44.90;;;;;;;;;;5025059;28;20471;-78
2023/09/13 01:17:53;;;;;;;71.20;45.30;;;;;;;;;;5030765;28;20981;-78
2023/09/13 01:20:23;;;;;;;70.17;48.00;;;;;;;;;;4998004;28;20478;-80
2023/09/13 01:23:09;;;;;;;59.63;42.80;;;;;;;;;;5013917;28;20482;-80
2023/09/13 01:25:45;;;;;;;71.17;47.50;;;;;;;;;;5015802;28;20479;-79
2023/09/13 01:28:13;;;;;;;69.17;47.17;;;;;;;;;;5014720;28;20468;-79
2023/09/13 01:30:43;;;;;;;67.50;45.73;;;;;;;;;;5016296;28;20461;-79
2023/09/13 01:33:09;;;;;;;66.43;47.80;;;;;;;;;;5014943;28;20499;-80
2023/09/13 01:35:35;;;;;;;66.97;45.13;;;;;;;;;;5021052;28;20472;-80
2023/09/13 01:38:02;;;;;;;65.20;45.37;;;;;;;;;;5016324;28;20491;-80
2023/09/13 01:40:30;;;;;;;63.33;43.07;;;;;;;;;;5028357;28;20475;-80
2023/09/13 01:42:57;;;;;;;60.47;42.53;;;;;;;;;;5007637;28;21053;-81
2023/09/13 01:45:24;;;;;;;54.97;40.47;;;;;;;;;;5025673;28;20858;-81
2023/09/13 01:47:52;;;;;;;48.13;35.93;;;;;;;;;;5022897;28;20879;-81
2023/09/13 01:50:20;;;;;;;47.80;35.73;;;;;;;;;;5023952;28;20469;-81
2023/09/13 01:52:47;;;;;;;50.80;34.97;;;;;;;;;;5018139;28;20482;-81
2023/09/13 01:55:13;;;;;;;52.40;37.70;;;;;;;;;;5022479;28;20489;-81
2023/09/13 01:57:40;;;;;;;52.17;36.30;;;;;;;;;;5024251;28;20484;-81
2023/09/13 02:00:07;;;;;;;57.20;37.53;;;;;;;;;;4987529;28;20482;-81
2023/09/13 02:02:33;;;;;;;49.37;36.80;;;;;;;;;;4995763;28;21200;-81
2023/09/13 02:05:01;;;;;;;57.67;40.23;;;;;;;;;;5014405;28;20472;-81
2023/09/13 02:07:29;;;;;;;62.70;41.27;;;;;;;;;;5017356;28;20468;-81
2023/09/13 02:09:55;;;;;;;55.80;39.30;;;;;;;;;;4982181;28;20819;-81
2023/09/13 02:12:22;;;;;;;54.17;36.63;;;;;;;;;;5007615;28;20489;-80
2023/09/13 02:14:48;;;;;;;62.03;40.30;;;;;;;;;;5008978;28;20474;-81
2023/09/13 02:17:15;;;;;;;56.27;38.40;;;;;;;;;;5015283;28;20551;-80
2023/09/13 02:19:41;;;;;;;59.33;38.97;;;;;;;;;;5012827;28;20495;-81
2023/09/13 02:22:09;;;;;;;60.07;38.67;;;;;;;;;;5020706;28;20797;-80
2023/09/13 02:24:36;;;;;;;54.37;35.23;;;;;;;;;;5022380;28;20473;-81
2023/09/13 02:27:03;;;;;;;56.50;32.93;;;;;;;;;;5031309;28;20556;-81
2023/09/13 02:29:29;;;;;;;48.70;32.90;;;;;;;;;;5021358;28;20473;-80
2023/09/13 02:31:56;;;;;;;52.60;35.57;;;;;;;;;;5020022;28;20474;-81
2023/09/13 02:34:22;;;;;;;50.17;30.27;;;;;;;;;;5028486;28;20482;-81
2023/09/13 02:36:51;;;;;;;48.13;33.33;;;;;;;;;;5026890;28;20469;-81
2023/09/13 02:39:32;;;;;;;49.97;32.37;;;;;;;;;;5012301;28;20510;-81
2023/09/13 02:41:58;;;;;;;43.63;31.87;;;;;;;;;;5008019;28;20474;-82
2023/09/13 02:44:25;;;;;;;47.40;31.53;;;;;;;;;;5012507;28;21295;-79
2023/09/13 02:46:51;;;;;;;34.67;26.00;;;;;;;;;;5016126;28;20484;-80
2023/09/13 02:49:18;;;;;;;38.90;27.90;;;;;;;;;;5029050;28;20469;-80
2023/09/13 02:51:47;;;;;;;40.80;29.87;;;;;;;;;;5034694;28;20978;-81
2023/09/13 02:54:13;;;;;;;41.50;28.57;;;;;;;;;;5029751;28;20522;-81
2023/09/13 02:56:41;;;;;;;34.20;27.50;;;;;;;;;;5014245;28;20506;-82
2023/09/13 02:59:09;;;;;;;40.50;27.13;;;;;;;;;;5031851;28;20462;-81
2023/09/13 03:01:36;;;;;;;34.90;24.90;;;;;;;;;;5014935;28;20493;-82
2023/09/13 03:04:03;;;;;;;31.83;23.07;;;;;;;;;;5029669;28;20469;-81
2023/09/13 03:06:32;;;;;;;31.50;22.93;;;;;;;;;;5028052;28;20465;-81
2023/09/13 03:08:59;;;;;;;26.50;19.40;;;;;;;;;;5024143;28;20469;-81
2023/09/13 03:11:26;;;;;;;28.30;19.87;;;;;;;;;;5009793;28;20473;-81
2023/09/13 03:13:54;;;;;;;25.83;17.70;;;;;;;;;;5019549;28;20495;-80
2023/09/13 03:16:22;;;;;;;28.27;17.43;;;;;;;;;;5033525;28;20492;-81
2023/09/13 03:18:50;;;;;;;22.90;16.40;;;;;;;;;;5035418;28;21015;-81
2023/09/13 03:21:17;;;;;;;22.33;14.37;;;;;;;;;;5025795;28;20488;-81
2023/09/13 03:23:45;;;;;;;20.60;14.77;;;;;;;;;;5023910;28;20512;-81
2023/09/13 03:26:12;;;;;;;18.77;15.10;;;;;;;;;;5025075;28;20461;-81
2023/09/13 03:28:38;;;;;;;20.17;14.90;;;;;;;;;;5025419;28;20488;-81
2023/09/13 03:31:10;;;;;;;26.90;14.93;;;;;;;;;;5040755;28;20504;-80
2023/09/13 03:33:36;;;;;;;21.53;14.50;;;;;;;;;;5009617;28;20477;-80
2023/09/13 03:36:03;;;;;;;17.13;10.67;;;;;;;;;;5013041;28;20834;-80
2023/09/13 03:38:29;;;;;;;18.23;10.40;;;;;;;;;;5025981;28;20479;-81
2023/09/13 03:40:56;;;;;;;19.77;10.33;;;;;;;;;;5026265;28;20495;-81
2023/09/13 03:43:22;;;;;;;11.80;8.50;;;;;;;;;;5030845;28;20476;-81
2023/09/13 03:45:48;;;;;;;16.60;10.23;;;;;;;;;;5022571;28;20563;-81
2023/09/13 03:48:16;;;;;;;11.03;8.97;;;;;;;;;;5019875;28;20492;-81
2023/09/13 03:50:43;;;;;;;10.30;7.70;;;;;;;;;;5020351;28;20461;-81
2023/09/13 03:53:09;;;;;;;12.77;8.40;;;;;;;;;;5021995;28;20480;-80
2023/09/13 03:55:36;;;;;;;13.33;7.10;;;;;;;;;;5018050;28;20484;-80
2023/09/13 03:58:02;;;;;;;12.80;8.80;;;;;;;;;;5016384;28;20498;-81
2023/09/13 04:00:29;;;;;;;9.77;7.07;;;;;;;;;;5017007;28;20478;-82
2023/09/13 04:02:56;;;;;;;11.03;6.90;;;;;;;;;;5011209;28;21010;-81
2023/09/13 04:05:23;;;;;;;11.90;7.60;;;;;;;;;;5015416;28;20466;-81
2023/09/13 04:07:50;;;;;;;11.70;7.80;;;;;;;;;;4997646;28;20475;-80
2023/09/13 04:10:16;;;;;;;9.80;6.70;;;;;;;;;;5028434;28;20469;-81
2023/09/13 04:12:43;;;;;;;9.17;7.50;;;;;;;;;;5017020;28;20956;-80
2023/09/13 04:15:09;;;;;;;10.60;8.10;;;;;;;;;;5027237;28;20473;-82
2023/09/13 04:17:36;;;;;;;12.93;8.47;;;;;;;;;;5026663;28;20477;-82
2023/09/13 04:20:03;;;;;;;12.10;8.23;;;;;;;;;;5024355;28;20461;-80
2023/09/13 04:22:31;;;;;;;11.20;8.83;;;;;;;;;;5025449;28;20468;-81
2023/09/13 04:24:57;;;;;;;14.03;7.60;;;;;;;;;;5028499;28;20473;-81
2023/09/13 04:27:24;;;;;;;13.27;9.00;;;;;;;;;;5024794;28;20478;-81
2023/09/13 04:29:51;;;;;;;17.50;10.93;;;;;;;;;;5025378;28;20471;-81
2023/09/13 04:32:19;;;;;;;16.10;11.60;;;;;;;;;;5032973;28;20969;-81
2023/09/13 04:34:46;;;;;;;23.40;12.23;;;;;;;;;;5030622;28;20503;-82
2023/09/13 04:37:12;;;;;;;19.67;10.87;;;;;;;;;;5012871;28;20481;-81
2023/09/13 04:39:40;;;;;;;17.03;12.03;;;;;;;;;;4997582;28;20513;-81
2023/09/13 04:42:07;;;;;;;21.93;12.20;;;;;;;;;;5013511;28;20500;-81
2023/09/13 04:44:33;;;;;;;15.13;11.47;;;;;;;;;;5004330;28;20528;-81
2023/09/13 04:47:00;;;;;;;19.23;10.70;;;;;;;;;;5028089;28;20477;-81
2023/09/13 04:49:28;;;;;;;18.87;11.47;;;;;;;;;;5021314;28;20469;-80
2023/09/13 04:51:55;;;;;;;15.13;10.20;;;;;;;;;;5042486;28;20471;-80
2023/09/13 04:54:23;;;;;;;12.67;9.70;;;;;;;;;;5030590;28;20465;-80
2023/09/13 04:56:51;;;;;;;15.30;9.10;;;;;;;;;;5026254;28;20480;-79
2023/09/13 04:59:18;;;;;;;15.30;8.80;;;;;;;;;;5026009;28;20993;-79
2023/09/13 05:01:45;;;;;;;14.43;8.30;;;;;;;;;;5014025;28;20501;-78
2023/09/13 05:04:13;;;;;;;11.67;7.20;;;;;;;;;;5000430;28;20841;-79
2023/09/13 05:06:39;;;;;;;8.97;7.60;;;;;;;;;;5008557;28;20486;-79
2023/09/13 05:09:06;;;;;;;13.97;8.27;;;;;;;;;;5020648;28;20475;-81
2023/09/13 05:11:32;;;;;;;13.67;7.20;;;;;;;;;;5021050;28;20489;-79
2023/09/13 05:14:13;;;;;;;16.43;7.97;;;;;;;;;;5020818;28;20472;-80
2023/09/13 05:16:39;;;;;;;14.57;7.87;;;;;;;;;;5019482;28;20851;-79
2023/09/13 05:19:05;;;;;;;10.03;8.27;;;;;;;;;;5026690;28;20466;-81
2023/09/13 05:21:32;;;;;;;16.17;7.00;;;;;;;;;;5024051;28;20489;-80
2023/09/13 05:23:58;;;;;;;9.80;7.13;;;;;;;;;;5024536;28;20481;-79
2023/09/13 05:26:25;;;;;;;12.07;7.63;;;;;;;;;;5011919;28;20513;-80
2023/09/13 05:28:51;;;;;;;9.40;7.57;;;;;;;;;;4993416;28;20469;-81
2023/09/13 05:31:19;;;;;;;8.37;7.33;;;;;;;;;;5013747;28;20500;-81
2023/09/13 05:33:46;;;;;;;11.57;7.70;;;;;;;;;;5011732;28;20497;-81
2023/09/13 05:36:13;;;;;;;8.13;6.00;;;;;;;;;;5021698;28;20838;-81
2023/09/13 05:38:40;;;;;;;11.37;6.57;;;;;;;;;;4978475;28;20479;-80
2023/09/13 05:41:07;;;;;;;9.70;6.87;;;;;;;;;;5017390;28;20476;-80
2023/09/13 05:43:33;;;;;;;9.27;6.20;;;;;;;;;;5025496;28;20488;-80
2023/09/13 05:45:59;;;;;;;15.73;8.70;;;;;;;;;;5026083;28;20472;-79
2023/09/13 05:48:27;;;;;;;11.20;7.03;;;;;;;;;;5024564;28;21048;-80
2023/09/13 05:50:54;;;;;;;11.13;7.00;;;;;;;;;;5017667;28;20486;-80
2023/09/13 05:53:20;;;;;;;12.20;7.90;;;;;;;;;;4997011;28;20970;-81
2023/09/13 05:55:46;;;;;;;10.80;6.80;;;;;;;;;;5015733;28;20533;-80
2023/09/13 05:58:13;;;;;;;7.90;6.87;;;;;;;;;;5016339;28;20498;-79
2023/09/13 06:00:40;;;;;;;9.50;6.97;;;;;;;;;;5025197;28;20458;-80
2023/09/13 06:03:06;;;;;;;6.77;5.53;;;;;;;;;;5009163;28;20532;-81
2023/09/13 06:05:34;;;;;;;9.80;5.63;;;;;;;;;;5023795;28;20466;-80
2023/09/13 06:08:00;;;;;;;9.43;5.80;;;;;;;;;;5021965;28;20480;-80
2023/09/13 06:10:28;;;;;;;9.70;5.70;;;;;;;;;;5029392;28;20476;-79
2023/09/13 06:12:54;;;;;;;6.57;5.30;;;;;;;;;;5022764;28;20486;-79
2023/09/13 06:15:20;;;;;;;11.40;5.00;;;;;;;;;;5004020;28;20862;-82
2023/09/13 06:17:47;;;;;;;9.80;4.80;;;;;;;;;;4999290;28;20467;-82
2023/09/13 06:20:13;;;;;;;11.67;4.60;;;;;;;;;;5023955;28;21009;-78
2023/09/13 06:22:41;;;;;;;12.50;4.13;;;;;;;;;;5023374;28;20505;-79
2023/09/13 06:25:08;;;;;;;8.43;3.80;;;;;;;;;;5015288;28;20474;-79
2023/09/13 06:27:34;;;;;;;7.40;3.90;;;;;;;;;;5023103;28;20476;-81
2023/09/13 06:30:01;;;;;;;8.87;3.27;;;;;;;;;;5014535;28;20467;-80
2023/09/13 06:32:27;;;;;;;7.77;3.67;;;;;;;;;;4994595;28;20477;-81
2023/09/13 06:34:56;;;;;;;7.63;4.17;;;;;;;;;;4999913;28;20985;-81
2023/09/13 06:37:22;;;;;;;7.47;4.30;;;;;;;;;;4995230;28;20470;-81
2023/09/13 06:39:50;;;;;;;8.30;4.00;;;;;;;;;;5009354;28;20473;-81
2023/09/13 06:42:17;;;;;;;7.33;3.73;;;;;;;;;;4994765;28;21069;-81
2023/09/13 06:44:44;;;;;;;8.73;3.87;;;;;;;;;;5022504;28;20478;-81
2023/09/13 06:47:10;;;;;;;8.13;3.27;;;;;;;;;;5006256;28;20485;-80
2023/09/13 06:49:36;;;;;;;6.07;2.33;;;;;;;;;;5010534;28;20475;-80
2023/09/13 06:52:03;;;;;;;6.50;3.00;;;;;;;;;;5000935;28;20470;-80
2023/09/13 06:54:30;;;;;;;6.80;2.20;;;;;;;;;;5010957;28;20466;-80
2023/09/13 06:56:58;;;;;;;5.20;2.83;;;;;;;;;;5005852;28;20474;-81
2023/09/13 06:59:25;;;;;;;5.63;2.57;;;;;;;;;;5001534;28;20471;-81
2023/09/13 07:01:52;;;;;;;9.63;2.67;;;;;;;;;;5000421;28;21040;-81
2023/09/13 07:04:19;;;;;;;6.63;3.00;;;;;;;;;;4999761;28;20986;-81
2023/09/13 07:06:45;;;;;;;9.00;2.60;;;;;;;;;;5002513;28;20487;-81
2023/09/13 07:09:12;;;;;;;5.30;2.70;;;;;;;;;;5017426;28;20457;-81
2023/09/13 07:11:38;;;;;;;10.20;2.97;;;;;;;;;;5005761;28;20473;-81
2023/09/13 07:14:06;;;;;;;9.33;2.63;;;;;;;;;;5013108;28;20514;-81
2023/09/13 07:16:33;;;;;;;10.10;2.50;;;;;;;;;;5017513;28;20478;-80
2023/09/13 07:18:59;;;;;;;8.33;2.43;;;;;;;;;;5013562;28;20522;-81
2023/09/13 07:21:26;;;;;;;9.63;2.43;;;;;;;;;;4997666;28;21027;-81
2023/09/13 07:23:52;;;;;;;8.83;2.57;;;;;;;;;;5010124;28;20477;-81
2023/09/13 07:26:18;;;;;;;8.00;2.40;;;;;;;;;;5021386;28;20466;-80
2023/09/13 07:28:45;;;;;;;7.23;2.67;;;;;;;;;;5023307;28;20717;-81
2023/09/13 07:31:12;;;;;;;9.40;2.40;;;;;;;;;;5009742;28;20991;-81
2023/09/13 07:33:39;;;;;;;5.33;2.77;;;;;;;;;;5018415;28;21017;-81
2023/09/13 07:36:05;;;;;;;6.40;2.53;;;;;;;;;;5018404;28;20469;-81
2023/09/13 07:38:32;;;;;;;8.20;2.70;;;;;;;;;;5019826;28;20971;-81
2023/09/13 07:40:58;;;;;;;5.03;2.53;;;;;;;;;;5017486;28;20477;-81
2023/09/13 07:43:25;;;;;;;10.73;2.57;;;;;;;;;;5006628;28;20485;-81
2023/09/13 07:45:51;;;;;;;6.37;2.13;;;;;;;;;;5026617;28;20504;-82
2023/09/13 07:48:19;;;;;;;5.70;2.50;;;;;;;;;;5005740;28;20928;-81
2023/09/13 07:50:46;;;;;;;6.30;1.87;;;;;;;;;;5023060;28;20494;-81
2023/09/13 07:53:12;;;;;;;6.60;3.00;;;;;;;;;;5020135;28;20978;-81
2023/09/13 07:55:39;;;;;;;6.83;2.70;;;;;;;;;;5015339;28;20470;-81
2023/09/13 07:58:07;;;;;;;8.13;2.83;;;;;;;;;;5021438;28;20468;-81
2023/09/13 08:00:33;;;;;;;12.27;3.80;;;;;;;;;;5031970;28;20462;-81
2023/09/13 08:03:00;;;;;;;7.50;2.23;;;;;;;;;;5003044;28;20518;-81
2023/09/13 08:05:28;;;;;;;8.47;3.50;;;;;;;;;;5004573;28;20463;-81
2023/09/13 08:07:55;;;;;;;9.43;2.73;;;;;;;;;;5023809;28;20465;-80
2023/09/13 08:10:24;;;;;;;5.53;2.67;;;;;;;;;;5026406;28;20461;-79
2023/09/13 08:12:50;;;;;;;6.77;2.20;;;;;;;;;;4985229;28;20493;-81
2023/09/13 08:15:16;;;;;;;6.00;2.70;;;;;;;;;;5016482;28;20464;-82
2023/09/13 08:17:44;;;;;;;5.57;2.30;;;;;;;;;;5022899;28;20492;-82
2023/09/13 08:20:10;;;;;;;6.83;2.73;;;;;;;;;;5020315;28;20754;-82
2023/09/13 08:22:38;;;;;;;5.40;1.93;;;;;;;;;;5030298;28;20491;-81
2023/09/13 08:25:06;;;;;;;7.80;2.57;;;;;;;;;;5002917;28;20950;-81
2023/09/13 08:27:32;;;;;;;6.30;3.33;;;;;;;;;;4997157;28;20514;-80
2023/09/13 08:29:59;;;;;;;7.00;3.00;;;;;;;;;;5023393;28;20473;-81
2023/09/13 08:32:25;;;;;;;6.23;2.70;;;;;;;;;;5026974;28;20474;-82
2023/09/13 08:34:51;;;;;;;7.17;2.47;;;;;;;;;;5024473;28;20480;-81
2023/09/13 08:37:18;;;;;;;6.23;2.60;;;;;;;;;;5009012;28;20484;-81
2023/09/13 08:39:46;;;;;;;9.30;2.60;;;;;;;;;;5019353;28;21023;-81
2023/09/13 08:42:13;;;;;;;8.03;2.30;;;;;;;;;;5022418;28;20500;-81
2023/09/13 08:44:40;;;;;;;5.60;2.60;;;;;;;;;;5027520;28;20556;-81
2023/09/13 08:47:10;;;;;;;7.87;2.17;;;;;;;;;;4999948;28;20846;-81
2023/09/13 08:49:37;;;;;;;12.20;4.33;;;;;;;;;;5022123;28;20497;-81
2023/09/13 08:52:05;;;;;;;6.80;2.30;;;;;;;;;;4980050;28;21057;-81
2023/09/13 08:54:33;;;;;;;4.53;2.20;;;;;;;;;;4999498;28;20490;-81
2023/09/13 08:57:02;;;;;;;6.13;2.33;;;;;;;;;;4988180;28;20858;-81
2023/09/13 08:59:29;;;;;;;8.90;2.77;;;;;;;;;;5000907;28;20469;-81
2023/09/13 09:01:56;;;;;;;7.53;3.07;;;;;;;;;;5000486;28;20509;-81
2023/09/13 09:04:22;;;;;;;6.70;2.70;;;;;;;;;;5018130;28;20468;-81
2023/09/13 09:06:48;;;;;;;11.33;2.93;;;;;;;;;;5015690;28;20952;-81
2023/09/13 09:09:18;;;;;;;9.93;2.63;;;;;;;;;;5020074;28;20456;-81
2023/09/13 09:11:47;;;;;;;6.77;2.90;;;;;;;;;;5007948;28;20476;-81
2023/09/13 09:14:15;;;;;;;5.07;2.60;;;;;;;;;;5021740;28;20482;-81
2023/09/13 09:16:42;;;;;;;6.70;2.33;;;;;;;;;;5024202;28;20481;-81
2023/09/13 09:19:08;;;;;;;9.90;2.47;;;;;;;;;;5011219;28;20471;-81
2023/09/13 09:21:37;;;;;;;7.67;2.20;;;;;;;;;;5013532;28;20477;-82
2023/09/13 09:24:04;;;;;;;7.13;2.80;;;;;;;;;;5000858;28;20981;-81
2023/09/13 09:26:30;;;;;;;4.20;2.10;;;;;;;;;;4998028;28;20466;-82
2023/09/13 09:29:10;;;;;;;5.80;2.97;;;;;;;;;;5026647;28;20484;-81
2023/09/13 09:31:37;;;;;;;9.20;2.33;;;;;;;;;;5017937;28;20460;-82
2023/09/13 09:34:04;;;;;;;8.07;2.20;;;;;;;;;;5018867;28;20469;-82
2023/09/13 09:36:34;;;;;;;9.63;2.17;;;;;;;;;;5023252;28;20862;-82
2023/09/13 09:39:00;;;;;;;8.70;2.60;;;;;;;;;;5018299;28;20483;-82
2023/09/13 09:41:31;;;;;;;7.43;2.17;;;;;;;;;;5019877;28;20468;-81
2023/09/13 09:43:58;;;;;;;4.20;2.47;;;;;;;;;;5019045;28;20504;-80
2023/09/13 09:46:25;;;;;;;4.53;2.50;;;;;;;;;;5007347;28;20473;-81
2023/09/13 09:48:53;;;;;;;5.80;2.60;;;;;;;;;;5012946;28;20486;-82
2023/09/13 09:51:20;;;;;;;7.60;2.63;;;;;;;;;;4995671;28;20553;-82
2023/09/13 09:53:46;;;;;;;6.00;1.97;;;;;;;;;;5022432;28;20476;-81
2023/09/13 09:56:13;;;;;;;8.67;2.97;;;;;;;;;;5025173;28;20461;-81
2023/09/13 09:58:39;;;;;;;6.80;2.50;;;;;;;;;;4998896;28;20484;-81
2023/09/13 10:01:06;;;;;;;5.03;2.50;;;;;;;;;;5001353;28;20475;-82
2023/09/13 10:03:33;;;;;;;6.13;3.00;;;;;;;;;;5009412;28;20570;-81
2023/09/13 10:06:03;;;;;;;5.83;2.53;;;;;;;;;;5010987;28;20473;-82
2023/09/13 10:08:36;;;;;;;6.13;3.10;;;;;;;;;;5015763;28;20504;-81
2023/09/13 10:11:03;;;;;;;3.50;2.50;;;;;;;;;;4994290;28;20513;-80
2023/09/13 10:13:30;;;;;;;5.40;2.73;;;;;;;;;;5024448;28;20469;-81
2023/09/13 10:15:57;;;;;;;5.73;2.50;;;;;;;;;;4978140;28;20505;-81
2023/09/13 10:18:25;;;;;;;4.30;2.40;;;;;;;;;;5006739;28;21088;-81
2023/09/13 10:20:51;;;;;;;6.23;2.30;;;;;;;;;;5002162;28;20460;-81
2023/09/13 10:23:21;;;;;;;5.40;2.67;;;;;;;;;;5002479;28;20512;-82
2023/09/13 10:25:47;;;;;;;5.73;3.07;;;;;;;;;;4999225;28;20470;-82
2023/09/13 10:28:14;;;;;;;5.43;2.40;;;;;;;;;;4989503;28;20493;-81
2023/09/13 10:30:42;;;;;;;10.33;3.13;;;;;;;;;;5009279;28;20477;-82
2023/09/13 10:33:12;;;;;;;3.47;2.03;;;;;;;;;;5020748;28;20475;-82
2023/09/13 10:35:41;;;;;;;5.20;2.67;;;;;;;;;;5013135;28;20863;-82
2023/09/13 10:38:10;;;;;;;12.00;3.30;;;;;;;;;;5015660;28;20527;-82
2023/09/13 10:40:40;;;;;;;6.27;2.80;;;;;;;;;;4999880;28;20461;-82
2023/09/13 10:43:08;;;;;;;4.90;3.40;;;;;;;;;;5017644;28;20503;-82
2023/09/13 10:45:36;;;;;;;3.47;2.40;;;;;;;;;;4988457;28;20461;-82
2023/09/13 10:48:04;;;;;;;6.17;3.00;;;;;;;;;;5014245;28;20468;-82
2023/09/13 10:50:31;;;;;;;3.00;1.80;;;;;;;;;;5019806;28;20517;-82
2023/09/13 10:52:59;;;;;;;4.50;2.10;;;;;;;;;;5029109;28;20481;-83
2023/09/13 10:55:26;;;;;;;3.47;2.80;;;;;;;;;;4994641;28;20501;-80
2023/09/13 10:57:57;;;;;;;3.60;1.93;;;;;;;;;;5032535;28;20804;-79
2023/09/13 11:00:24;;;;;;;6.47;2.83;;;;;;;;;;5020632;28;20482;-80
2023/09/13 11:02:51;;;;;;;3.27;2.07;;;;;;;;;;5023937;28;20506;-80
2023/09/13 11:05:17;;;;;;;5.93;2.67;;;;;;;;;;5025825;28;20472;-80
2023/09/13 11:07:46;;;;;;;3.43;2.00;;;;;;;;;;5011687;28;20479;-80
2023/09/13 11:10:14;;;;;;;6.03;2.10;;;;;;;;;;5026053;28;20472;-82
2023/09/13 11:12:43;;;;;;;3.23;2.10;;;;;;;;;;5020911;28;20477;-83
2023/09/13 11:15:14;;;;;;;2.80;2.07;;;;;;;;;;5023506;28;20477;-82
2023/09/13 11:17:43;;;;;;;3.20;2.03;;;;;;;;;;5005906;28;20470;-81
2023/09/13 11:20:27;;;;;;;6.13;2.30;;;;;;;;;;5016639;28;21057;-81
2023/09/13 11:23:05;;;;;;;5.53;2.80;;;;;;;;;;4998682;28;20499;-81
2023/09/13 11:25:43;;;;;;;3.93;2.33;;;;;;;;;;5024526;28;20490;-82
2023/09/13 11:28:27;;;;;;;3.83;2.20;;;;;;;;;;5002048;28;20469;-80
2023/09/13 11:30:57;;;;;;;5.60;2.27;;;;;;;;;;5026245;28;20468;-80
2023/09/13 11:33:24;;;;;;;3.90;2.20;;;;;;;;;;5017937;28;20481;-80
2023/09/13 11:35:50;;;;;;;3.57;2.10;;;;;;;;;;5014724;28;20487;-81
2023/09/13 11:38:17;;;;;;;4.47;1.93;;;;;;;;;;5005321;28;20468;-81
2023/09/13 11:40:47;;;;;;;4.57;2.20;;;;;;;;;;5012905;28;20477;-80
2023/09/13 11:43:13;;;;;;;5.70;2.83;;;;;;;;;;5016244;28;20509;-81
2023/09/13 11:45:40;;;;;;;6.30;2.30;;;;;;;;;;5008510;28;20960;-81
2023/09/13 11:48:09;;;;;;;4.27;2.43;;;;;;;;;;5024138;28;20470;-81
2023/09/13 11:50:44;;;;;;;4.93;2.70;;;;;;;;;;5010997;28;20986;-80
2023/09/13 11:53:14;;;;;;;5.20;2.47;;;;;;;;;;5005739;28;20492;-81
2023/09/13 11:55:44;;;;;;;4.77;2.53;;;;;;;;;;5017534;28;20462;-81
2023/09/13 11:58:15;;;;;;;5.70;2.43;;;;;;;;;;5005309;28;21005;-81
2023/09/13 12:00:41;;;;;;;7.40;2.23;;;;;;;;;;5011058;28;20470;-80
2023/09/13 12:03:09;;;;;;;2.80;1.90;;;;;;;;;;5021797;28;20933;-81
2023/09/13 12:05:38;;;;;;;4.10;1.97;;;;;;;;;;5023934;28;20838;-81
2023/09/13 12:08:18;;;;;;;3.50;2.30;;;;;;;;;;5025607;28;20908;-81
2023/09/13 12:10:45;;;;;;;5.63;2.50;;;;;;;;;;5023911;28;20483;-81
2023/09/13 12:13:11;;;;;;;4.60;2.20;;;;;;;;;;5010079;28;20477;-81
2023/09/13 12:15:57;;;;;;;7.20;3.03;;;;;;;;;;5022415;28;20476;-80
2023/09/13 12:18:25;;;;;;;4.30;2.13;;;;;;;;;;4993371;28;20509;-80
2023/09/13 12:20:51;;;;;;;2.90;2.60;;;;;;;;;;5024824;28;20461;-81
2023/09/13 12:23:18;;;;;;;3.00;2.37;;;;;;;;;;5021527;28;20797;-79
2023/09/13 12:25:46;;;;;;;3.57;2.60;;;;;;;;;;5021571;28;20986;-81
2023/09/13 12:28:12;;;;;;;7.20;2.93;;;;;;;;;;5013449;28;20511;-80
2023/09/13 12:30:38;;;;;;;5.47;2.33;;;;;;;;;;5019065;28;20477;-81
2023/09/13 12:33:05;;;;;;;4.70;2.87;;;;;;;;;;5029523;28;20480;-81
2023/09/13 12:35:33;;;;;;;4.47;2.70;;;;;;;;;;5030403;28;20472;-81
2023/09/13 12:38:00;;;;;;;9.67;2.90;;;;;;;;;;5009732;28;20497;-80
2023/09/13 12:40:27;;;;;;;4.30;2.43;;;;;;;;;;5035641;28;20460;-80
2023/09/13 12:42:56;;;;;;;4.23;2.43;;;;;;;;;;5019050;28;20485;-80
2023/09/13 12:45:22;;;;;;;6.80;2.60;;;;;;;;;;5008868;28;20474;-81
2023/09/13 12:47:50;;;;;;;4.63;2.17;;;;;;;;;;5027191;28;20975;-81
2023/09/13 12:50:16;;;;;;;5.70;2.57;;;;;;;;;;5006041;28;20469;-81
2023/09/13 12:52:44;;;;;;;5.57;2.40;;;;;;;;;;5010217;28;20481;-81
2023/09/13 12:55:13;;;;;;;4.03;2.27;;;;;;;;;;5019474;28;20481;-80
2023/09/13 12:57:39;;;;;;;4.57;2.63;;;;;;;;;;5012131;28;20492;-81
2023/09/13 13:00:11;;;;;;;8.83;3.07;;;;;;;;;;5015096;28;20462;-80
2023/09/13 13:02:37;;;;;;;5.43;3.30;;;;;;;;;;5005578;28;20474;-81
2023/09/13 13:05:04;;;;;;;6.07;2.67;;;;;;;;;;5024964;28;20480;-80
2023/09/13 13:07:33;;;;;;;4.60;2.93;;;;;;;;;;5031398;28;20527;-80
2023/09/13 13:10:04;;;;;;;8.97;3.13;;;;;;;;;;5020931;28;20561;-81
2023/09/13 13:12:30;;;;;;;6.20;3.00;;;;;;;;;;5021906;28;20480;-80
2023/09/13 13:14:58;;;;;;;6.23;2.63;;;;;;;;;;5019991;28;20838;-80
2023/09/13 13:17:24;;;;;;;4.97;2.13;;;;;;;;;;4997626;28;20507;-81
2023/09/13 13:19:53;;;;;;;4.43;2.43;;;;;;;;;;5025762;28;20466;-81
2023/09/13 13:22:20;;;;;;;4.33;3.13;;;;;;;;;;5017323;28;20473;-80
2023/09/13 13:24:46;;;;;;;8.23;2.70;;;;;;;;;;4999348;28;20478;-80
2023/09/13 13:27:14;;;;;;;4.30;2.57;;;;;;;;;;5007936;28;20475;-80
2023/09/13 13:29:40;;;;;;;7.40;2.67;;;;;;;;;;5016720;28;20466;-80
2023/09/13 13:32:07;;;;;;;4.83;1.97;;;;;;;;;;5015104;28;20502;-80
2023/09/13 13:34:33;;;;;;;5.03;2.40;;;;;;;;;;5009224;28;20471;-80
2023/09/13 13:37:02;;;;;;;3.80;2.10;;;;;;;;;;5001518;28;20498;-80
2023/09/13 13:39:30;;;;;;;11.90;3.50;;;;;;;;;;5007522;28;20559;-80
2023/09/13 13:41:56;;;;;;;8.97;2.40;;;;;;;;;;5002113;28;20471;-81
2023/09/13 13:44:24;;;;;;;13.93;3.00;;;;;;;;;;4990907;28;20537;-80
2023/09/13 13:46:51;;;;;;;5.50;2.13;;;;;;;;;;5021740;28;20477;-81
2023/09/13 13:49:17;;;;;;;4.63;2.20;;;;;;;;;;4990279;28;20841;-80
2023/09/13 13:51:45;;;;;;;6.57;2.50;;;;;;;;;;5002850;28;20512;-80
2023/09/13 13:54:12;;;;;;;7.03;2.93;;;;;;;;;;5006324;28;20987;-80
2023/09/13 13:56:40;;;;;;;8.13;2.47;;;;;;;;;;5020913;28;20474;-80
2023/09/13 13:59:07;;;;;;;5.40;2.20;;;;;;;;;;5020540;28;20493;-80
2023/09/13 14:01:34;;;;;;;3.17;2.00;;;;;;;;;;5005272;28;21031;-80
2023/09/13 14:04:01;;;;;;;5.50;2.23;;;;;;;;;;5016782;28;20499;-80
2023/09/13 14:06:28;;;;;;;4.77;1.90;;;;;;;;;;4996519;28;20614;-80
2023/09/13 14:08:54;;;;;;;8.93;2.57;;;;;;;;;;5020630;28;20492;-80
2023/09/13 14:11:20;;;;;;;4.73;2.20;;;;;;;;;;4991154;28;20487;-80
2023/09/13 14:13:47;;;;;;;7.30;1.83;;;;;;;;;;5016304;28;20480;-79
2023/09/13 14:16:13;;;;;;;7.93;2.40;;;;;;;;;;5022435;28;20481;-80
2023/09/13 14:18:41;;;;;;;6.80;2.77;;;;;;;;;;5023830;28;20472;-81
2023/09/13 14:21:07;;;;;;;7.60;2.93;;;;;;;;;;5025519;28;20477;-81
2023/09/13 14:23:34;;;;;;;5.80;2.60;;;;;;;;;;5020946;28;20495;-80
2023/09/13 14:26:00;;;;;;;3.53;1.80;;;;;;;;;;5023155;28;20487;-81
2023/09/13 14:28:27;;;;;;;9.87;2.50;;;;;;;;;;4985676;28;21077;-80
2023/09/13 14:30:58;;;;;;;8.73;2.30;;;;;;;;;;5019383;28;20488;-80
2023/09/13 14:33:25;;;;;;;7.13;2.77;;;;;;;;;;5003372;28;20488;-80
2023/09/13 14:35:55;;;;;;;13.10;3.33;;;;;;;;;;4984072;28;21013;-80